Visit the IPS Meteostar Home Page IPSM Truckee-Tahoe FORECAST

Incline Village, Nevada

34

67

71

78

80

80

80

80

40
40
43
46
46
46
46

10 miles away at Truckee-Tahoe 12:55 GMT

Weather:

Fog

Wind:

CALM

Temperature:

34 ° F

Pressure:

NA

Dew Point:

34 ° F

Relative Humidity:

100

Feels Like:

34 ° F

Visibility:

0.25 mile


Aviation Observations:

KTRK 181255Z AUTO 00000KT 1/4SM FG BKN002 01/01 A3014 RMK AO2 =

National Weather Service Forecast:
Greater Lake Tahoe Area

greater lake tahoe area- including the cities of south lake tahoe, tahoe city, truckee, markleeville, stateline, glenbrook, and incline village
331 AM PDT MON JUN 18 2018

TODAY

Sunny in the morning then becoming partly cloudy. Highs 62 to 72. Light winds becoming northwest around 10 mph in the afternoon.

TONIGHT

Partly cloudy in the evening then clearing. Lows 35 to 45. Northwest winds around 10 mph in the evening becoming light.

TUESDAY

Sunny. Highs 66 to 76. Light winds becoming northeast around 10 mph in the afternoon.

TUESDAY NIGHT

Clear. Lows 38 to 48. West winds around 10 mph in the evening becoming light.

WEDNESDAY

Sunny. Highs 73 to 83. Light winds becoming south around 10 mph in the afternoon.

WEDNESDAY NIGHT

Clear. Lows 41 to 51.

THURSDAY THROUGH SUNDAY

Clear. Highs 75 to 85. Lows 40 to 50.


Visit the IPS Meteostar Home Page